NY/NJ Local METAR Reports

No Warnings, Watches, or Advisories
KNYC - NYC/Central Park, NY, USA
Distance from station: NE 4mi, 7km
Updated: 01/16/2021 11:51pm
Clear
Clear
 
Temperature: 37°F , 3°C
Dew Point: 25°F , -4°C
Humidity: 60%
Barometer: 29.47 inHg , 998 hPa
Clouds: Clear
Visibility: 10 miles , 16 km
2021/01/17 04:51 KNYC 170451Z AUTO 10SM CLR 03/M04 A2947 RMK AO2 SLP970 T00281039 400830028 $
KEWR - Newark, NJ, USA
Distance from station: WSW 8mi, 13km
Updated: 01/16/2021 11:51pm
Few Clouds
Few Clouds
 Wind from WSW
Wind: WSW 15 mph , 24 km/h
Temperature: 37°F , 3°C
Wind Chill: 28°F , -2°C
Dew Point: 27°F , -3°C
Humidity: 65%
Barometer: 29.46 inHg , 997.6 hPa
Clouds: Few Clouds
Visibility: 10 miles , 16 km
Cloud details: Few Clouds 15000 ft
2021/01/17 04:51 KEWR 170451Z 25013KT 10SM FEW150 03/M03 A2946 RMK AO2 SLP976 T00281033 400890028
 
KLGA - NYC/La Guardia, NY, USA
Distance from station: ENE 8mi, 13km
Updated: 01/16/2021 11:51pm
Few Clouds
Few Clouds
 Wind from W
Wind: W 15 mph , 24 km/h, Gust: 24 mph , 39 km/h
Temperature: 39°F , 4°C
Wind Chill: 31°F , -1°C
Dew Point: 25°F , -4°C
Humidity: 56%
Barometer: 29.45 inHg , 997.3 hPa
Clouds: Few Clouds
Visibility: 10 miles , 16 km
Cloud details: Few Clouds 15000 ft
2021/01/17 04:51 KLGA 170451Z 26013G21KT 10SM FEW150 04/M04 A2945 RMK AO2 SLP971 T00441044 400940044
KTEB - Teterboro, NJ, USA
Distance from station: N 9mi, 14km
Updated: 01/16/2021 11:51pm
Clear
Clear
 Wind from WSW
Wind: WSW 10 mph , 17 km/h, Gust: 17 mph , 28 km/h
Temperature: 36°F , 2°C
Wind Chill: 29°F , -2°C
Dew Point: 25°F , -4°C
Humidity: 65%
Barometer: 29.44 inHg , 997 hPa
Clouds: Clear
Visibility: 10 miles , 16 km
2021/01/17 04:51 KTEB 170451Z 25009G15KT 10SM CLR 02/M04 A2944 RMK AO2 SLP969 T00221039 400780022 $
 
KJFK - NYC/Jfk Arpt, NY, USA
Distance from station: ESE 16mi, 25km
Updated: 01/16/2021 11:51pm
Few Clouds
Few Clouds
 Wind from W
Wind: W 21 mph , 33 km/h, Gust: 29 mph , 46 km/h
Temperature: 37°F , 3°C
Wind Chill: 26°F , -3°C
Dew Point: 27°F , -3°C
Humidity: 65%
Barometer: 29.47 inHg , 998 hPa
Clouds: Few Clouds
Visibility: 10 miles , 16 km
Cloud details: Few Clouds 12000 ft
2021/01/17 04:51 KJFK 170451Z 27018G25KT 10SM FEW120 03/M03 A2947 RMK AO2 SLP978 T00331033 401000033 $
KCDW - Caldwell, NJ, USA
Distance from station: NW 16mi, 26km
Updated: 01/16/2021 11:53pm
Clear
Clear
 Wind from WSW
Wind: WSW 6 mph , 9 km/h
Temperature: 37°F , 3°C
Wind Chill: 32°F , 0°C
Dew Point: 25°F , -4°C
Humidity: 60%
Barometer: 29.46 inHg , 997.6 hPa
Clouds: Clear
Visibility: 10 miles , 16 km
2021/01/17 04:53 KCDW 170453Z 25005KT 10SM CLR 03/M04 A2946 RMK AO2 SLP981 T00331044 400830028
 
KMMU - Morristown Muni, NJ, USA
Distance from station: W 20mi, 33km
Updated: 01/17/2021 12:15am
Clear
Clear
 Wind from WSW
Wind: WSW 12 mph , 19 km/h, Gust: 17 mph , 28 km/h
Temperature: 36°F , 2°C
Wind Chill: 28°F , -2°C
Dew Point: 25°F , -4°C
Humidity: 65%
Barometer: 29.48 inHg , 998.3 hPa
Clouds: Clear
Visibility: 10 miles , 16 km
2021/01/17 05:15 KMMU 170515Z AUTO 24010G15KT 10SM CLR 02/M04 A2948 RMK AO2
KHPN - White Plains, NY, USA
Distance from station: NE 28mi, 46km
Updated: 01/16/2021 11:56pm
Clear
Clear
 Wind from W
Wind: W 9 mph , 15 km/h
Temperature: 36°F , 2°C
Wind Chill: 29°F , -2°C
Dew Point: 25°F , -4°C
Humidity: 65%
Barometer: 29.40 inHg , 995.6 hPa
Clouds: Clear
Visibility: 10 miles , 16 km
2021/01/17 04:56 KHPN 170456Z 27008KT 10SM CLR 02/M04 A2940 RMK AO2 SLP962 T00171044 400610011
 
KFRG - Farmingdale, NY, USA
Distance from station: E 32mi, 52km
Updated: 01/16/2021 11:53pm
Clear
Clear
 Wind from W
Wind: W 17 mph , 28 km/h
Temperature: 37°F , 3°C
Wind Chill: 27°F , -3°C
Dew Point: 25°F , -4°C
Humidity: 60%
Barometer: 29.44 inHg , 997 hPa
Clouds: Clear
Visibility: 10 miles , 16 km
2021/01/17 04:53 KFRG 170453Z 28015KT 10SM CLR 03/M04 A2944 RMK AO2 SLP969 T00331044 401000033 $
KSMQ - Somerville, NJ, USA
Distance from station: WSW 34mi, 55km
Updated: 01/16/2021 11:53pm
Clear
Clear
 Wind from W
Wind: W 10 mph , 17 km/h, Gust: 17 mph , 28 km/h
Temperature: 37°F , 3°C
Wind Chill: 30°F , -1°C
Dew Point: 25°F , -4°C
Humidity: 60%
Barometer: 29.47 inHg , 998 hPa
Clouds: Clear
Visibility: 10 miles , 16 km
2021/01/17 04:53 KSMQ 170453Z AUTO 26009G15KT 230V300 10SM CLR 03/M04 A2947 RMK AO2 SLP982 T00281039 400831011
 
KBLM - Belmar/Farmdale, NJ, USA
Distance from station: S 40mi, 64km
Updated: 01/16/2021 11:56pm
Clear
Clear
 Wind from W
Wind: W 12 mph , 19 km/h, Gust: 18 mph , 30 km/h
Temperature: 36°F , 2°C
Wind Chill: 28°F , -2°C
Dew Point: 27°F , -3°C
Humidity: 70%
Barometer: 29.52 inHg , 999.7 hPa
Clouds: Clear
Visibility: 10 miles , 16 km
2021/01/17 04:56 KBLM 170456Z AUTO 26010G16KT 10SM CLR 02/M03 A2952 RMK AO2 SLP995 T00221033 401060022 FZRANO
K12N - Andover, NJ, USA
Distance from station: WNW 41mi, 67km
Updated: 01/16/2021 11:54pm

 Wind from varies
Wind: varies 5 mph , 7 km/h
Temperature: 34°F , 1°C
Wind Chill: 29°F , -2°C
Dew Point: 25°F , -4°C
Humidity: 70%
Barometer: 29.45 inHg , 997.3 hPa
2021/01/17 04:54 K12N 170454Z AUTO VRB04KT 01/M04 A2945 RMK AO1 SLP980 T00111039 400561017
 
KFWN - Sussex, NJ, USA
Distance from station: NW 45mi, 72km
Updated: 01/16/2021 11:53pm
Clear
Clear
 Wind from SSW
Wind: SSW 6 mph , 9 km/h
Temperature: 32°F , 0°C
Wind Chill: 26°F , -3°C
Dew Point: 25°F , -4°C
Humidity: 75%
Barometer: 29.43 inHg , 996.6 hPa
Clouds: Clear
Visibility: 10 miles , 16 km
2021/01/17 04:53 KFWN 170453Z AUTO 21005KT 10SM CLR 00/M04 A2943 RMK AO2 SLP968 T00001039 400610000 $
KISP - Islip, NY, USA
Distance from station: E 49mi, 79km
Updated: 01/16/2021 11:56pm
Clear
Clear
 Wind from W
Wind: W 10 mph , 17 km/h
Temperature: 36°F , 2°C
Wind Chill: 29°F , -2°C
Dew Point: 27°F , -3°C
Humidity: 70%
Barometer: 29.42 inHg , 996.3 hPa
Clouds: Clear
Visibility: 10 miles , 16 km
2021/01/17 04:56 KISP 170456Z 27009KT 10SM CLR 02/M03 A2942 RMK AO2 SLP962 LAST T00221028 400940017